createdAt,value
2022-09-05T00:03:03.682Z,47.84
2022-09-05T00:06:02.557Z,47.50
2022-09-05T00:08:36.951Z,47.11
2022-09-05T00:11:41.368Z,47.52
2022-09-05T00:15:14.911Z,47.85
2022-09-05T00:21:48.206Z,47.05
2022-09-05T00:24:23.323Z,47.35
2022-09-05T00:24:33.985Z,47.54
2022-09-05T00:27:01.784Z,47.80
2022-09-05T00:31:06.574Z,47.20
2022-09-05T00:32:44.457Z,47.30
2022-09-05T00:35:26.512Z,46.83
2022-09-05T00:37:53.892Z,47.09
2022-09-05T00:40:31.258Z,47.17
2022-09-05T00:43:23.978Z,47.30
2022-09-05T00:45:56.489Z,47.45
2022-09-05T00:48:35.115Z,46.89
2022-09-05T00:51:14.775Z,47.25
2022-09-05T00:54:02.485Z,46.90
2022-09-05T00:56:54.711Z,47.22
2022-09-05T00:59:24.583Z,47.54
2022-09-05T01:01:56.707Z,47.47
2022-09-05T01:04:29.478Z,47.47
2022-09-05T01:07:10.725Z,47.82
2022-09-05T01:10:03.698Z,47.87
2022-09-05T01:12:55.336Z,47.80
2022-09-05T01:15:55.072Z,47.92
2022-09-05T01:18:43.740Z,47.59
2022-09-05T01:21:18.937Z,47.96
2022-09-05T01:23:57.748Z,47.76
2022-09-05T01:26:46.116Z,47.88
2022-09-05T01:29:27.500Z,47.54
2022-09-05T01:32:08.715Z,47.61
2022-09-05T01:35:01.763Z,48.08
2022-09-05T01:37:40.607Z,48.15
2022-09-05T01:40:28.669Z,47.33
2022-09-05T01:43:14.178Z,47.79
2022-09-05T01:45:55.796Z,47.78
2022-09-05T01:48:48.022Z,48.19
2022-09-05T01:51:32.333Z,47.57
2022-09-05T01:54:25.492Z,47.83
2022-09-05T01:57:20.930Z,47.62
2022-09-05T02:00:14.995Z,48.51
2022-09-05T02:02:53.729Z,48.15
2022-09-05T02:05:48.675Z,48.00
2022-09-05T02:08:16.280Z,48.92
2022-09-05T02:10:55.059Z,48.52
2022-09-05T02:13:33.813Z,49.04
2022-09-05T02:16:16.825Z,49.22
2022-09-05T02:19:06.416Z,48.67
2022-09-05T02:21:56.309Z,48.68
2022-09-05T02:24:33.141Z,49.36
2022-09-05T02:27:45.838Z,49.17
2022-09-05T02:30:08.722Z,49.63
2022-09-05T02:32:54.776Z,49.37
2022-09-05T02:36:06.313Z,49.31
2022-09-05T02:44:24.199Z,49.67
2022-09-05T02:45:20.775Z,49.47
2022-09-05T02:45:24.207Z,49.57
2022-09-05T02:48:20.000Z,49.93
2022-09-05T02:57:28.062Z,50.00
2022-09-05T02:57:38.336Z,49.99
2022-09-05T02:57:44.455Z,50.27
2022-09-05T02:59:50.686Z,50.54
2022-09-05T03:02:28.411Z,50.62
2022-09-05T03:05:04.493Z,50.10
2022-09-05T03:08:16.174Z,50.24
2022-09-05T03:11:20.567Z,50.79
2022-09-05T03:14:02.542Z,50.85
2022-09-05T03:16:48.010Z,50.80
2022-09-05T03:19:46.541Z,50.97
2022-09-05T03:22:44.429Z,51.03
2022-09-05T03:25:39.274Z,51.20
2022-09-05T03:28:27.767Z,51.03
2022-09-05T03:31:06.663Z,51.49
2022-09-05T03:34:06.674Z,51.56
2022-09-05T03:36:47.167Z,51.77
2022-09-05T03:39:44.920Z,51.19
2022-09-05T03:42:25.928Z,51.44
2022-09-05T03:45:07.452Z,51.87
2022-09-05T03:48:27.817Z,52.00
2022-09-05T03:57:08.630Z,51.54
2022-09-05T03:57:11.362Z,51.55
2022-09-05T03:57:24.063Z,52.33
2022-09-05T03:59:57.429Z,52.01
2022-09-05T04:05:28.399Z,52.03
2022-09-05T04:08:28.023Z,52.28
2022-09-05T04:08:43.352Z,52.44
2022-09-05T04:11:14.345Z,52.51
2022-09-05T04:13:53.837Z,52.56
2022-09-05T04:16:26.756Z,52.71
2022-09-05T04:19:18.260Z,52.97
2022-09-05T04:22:22.099Z,52.61
2022-09-05T04:24:55.518Z,52.56
2022-09-05T04:27:31.832Z,52.57
2022-09-05T04:30:00.862Z,52.79
2022-09-05T04:32:34.338Z,52.81
2022-09-05T04:35:35.611Z,52.34
2022-09-05T04:38:11.813Z,53.02
2022-09-05T04:40:41.682Z,52.83
2022-09-05T04:43:36.003Z,52.40
2022-09-05T04:46:18.877Z,52.68
2022-09-05T04:48:55.099Z,53.36
2022-09-05T04:51:44.482Z,53.46
2022-09-05T04:54:14.336Z,53.49
2022-09-05T04:56:44.295Z,53.24
2022-09-05T05:01:03.069Z,53.42
2022-09-05T05:06:18.911Z,52.94
2022-09-05T05:06:23.626Z,53.28
2022-09-05T05:08:43.632Z,53.29
2022-09-05T05:17:07.567Z,53.46
2022-09-05T05:17:55.976Z,53.67
2022-09-05T05:18:13.922Z,53.07
2022-09-05T05:20:41.905Z,52.93
2022-09-05T05:23:16.538Z,52.48
2022-09-05T05:25:48.136Z,53.16
2022-09-05T05:28:25.026Z,52.71
2022-09-05T05:31:01.618Z,52.65
2022-09-05T05:33:32.753Z,52.80
2022-09-05T05:36:01.616Z,53.42
2022-09-05T05:38:35.617Z,52.59
2022-09-05T05:41:12.497Z,53.17
2022-09-05T05:43:46.086Z,53.16
2022-09-05T05:46:16.185Z,52.94
2022-09-05T05:48:48.389Z,53.35
2022-09-05T05:52:01.417Z,53.09
2022-09-05T05:54:46.868Z,53.60
2022-09-05T05:57:26.714Z,53.74
2022-09-05T06:00:14.814Z,53.24
2022-09-05T06:03:09.849Z,53.63
2022-09-05T06:06:27.221Z,52.78
2022-09-05T06:14:49.297Z,53.80
2022-09-05T06:14:57.751Z,53.38
2022-09-05T06:15:45.329Z,52.99
2022-09-05T06:18:28.169Z,52.90
2022-09-05T06:22:11.512Z,52.39
2022-09-05T06:23:57.586Z,52.75
2022-09-05T06:26:52.206Z,52.28
2022-09-05T06:29:38.367Z,52.22
2022-09-05T06:32:34.105Z,53.06
2022-09-05T06:35:06.769Z,52.85
2022-09-05T06:38:01.621Z,52.10
2022-09-05T06:40:37.407Z,51.60
2022-09-05T06:43:26.038Z,52.09
2022-09-05T06:46:54.743Z,51.14
2022-09-05T06:49:39.323Z,51.59
2022-09-05T06:52:36.567Z,51.29
2022-09-05T06:55:26.560Z,51.28
2022-09-05T06:58:21.546Z,50.80
2022-09-05T07:00:55.624Z,51.75
2022-09-05T07:03:33.437Z,51.77
2022-09-05T07:06:46.666Z,52.19
2022-09-05T07:09:34.848Z,51.40
2022-09-05T07:12:43.142Z,50.85
2022-09-05T07:15:28.739Z,50.71
2022-09-05T07:18:34.389Z,51.07
2022-09-05T07:21:17.411Z,50.42
2022-09-05T07:24:09.505Z,50.29
2022-09-05T07:26:51.745Z,49.67
2022-09-05T07:29:37.808Z,48.95
2022-09-05T07:32:07.851Z,48.75
2022-09-05T07:34:35.545Z,48.74
2022-09-05T07:37:17.891Z,48.74
2022-09-05T07:39:50.291Z,48.05
2022-09-05T07:42:26.247Z,46.43
2022-09-05T07:44:59.750Z,47.19
2022-09-05T07:47:32.976Z,46.54
2022-09-05T07:51:51.274Z,45.89
2022-09-05T07:56:51.594Z,47.04
2022-09-05T07:56:59.809Z,45.35
2022-09-05T07:58:44.324Z,44.38
2022-09-05T08:01:12.859Z,44.59
2022-09-05T08:03:41.126Z,43.03
2022-09-05T08:06:18.420Z,43.73
2022-09-05T08:10:09.053Z,43.05
2022-09-05T08:12:15.282Z,42.38
2022-09-05T08:14:59.421Z,42.40
2022-09-05T08:17:30.072Z,40.75
2022-09-05T08:20:35.890Z,41.65
2022-09-05T08:23:06.377Z,41.51
2022-09-05T08:25:56.911Z,41.88
2022-09-05T08:28:25.862Z,41.82
2022-09-05T08:31:14.521Z,40.44
2022-09-05T08:33:43.543Z,40.41
2022-09-05T08:36:35.252Z,40.08
2022-09-05T08:39:03.789Z,39.97
2022-09-05T08:41:49.392Z,38.76
2022-09-05T08:46:36.845Z,38.27
2022-09-05T08:47:54.603Z,37.88
2022-09-05T08:50:39.748Z,38.54
2022-09-05T08:53:47.064Z,38.70
2022-09-05T08:56:58.540Z,37.56
2022-09-05T09:00:19.443Z,36.12
2022-09-05T09:03:29.018Z,36.16
2022-09-05T09:06:15.109Z,36.02
2022-09-05T09:08:54.580Z,36.56
2022-09-05T09:11:44.290Z,36.07
2022-09-05T09:14:33.043Z,35.12
2022-09-05T09:17:20.477Z,35.06
2022-09-05T09:20:06.226Z,35.51
2022-09-05T09:22:59.512Z,34.60
2022-09-05T09:25:36.874Z,34.54
2022-09-05T09:28:47.949Z,34.48
2022-09-05T09:31:22.771Z,34.07
2022-09-05T09:34:16.476Z,33.47
2022-09-05T09:36:52.272Z,33.45
2022-09-05T09:39:48.194Z,34.51
2022-09-05T09:42:33.712Z,33.19
2022-09-05T09:45:53.448Z,33.35
2022-09-05T09:48:35.190Z,32.91
2022-09-05T09:51:08.533Z,33.58
2022-09-05T09:53:46.972Z,32.56
2022-09-05T09:56:32.670Z,32.41
2022-09-05T09:59:14.517Z,32.57
2022-09-05T10:03:40.963Z,32.96
2022-09-05T10:10:40.340Z,33.69
2022-09-05T10:10:53.206Z,32.11
2022-09-05T10:12:14.056Z,33.35
2022-09-05T10:15:30.456Z,31.95
2022-09-05T10:18:14.158Z,31.82
2022-09-05T10:21:16.663Z,31.83
2022-09-05T10:24:08.277Z,31.91
2022-09-05T10:26:53.891Z,32.50
2022-09-05T10:29:52.814Z,32.00
2022-09-05T10:35:11.616Z,31.76
2022-09-05T10:35:22.346Z,30.57
2022-09-05T10:38:11.416Z,30.78
2022-09-05T10:41:14.545Z,30.73
2022-09-05T10:43:28.913Z,31.22
2022-09-05T10:46:01.258Z,30.20
2022-09-05T10:48:36.682Z,29.56
2022-09-05T10:51:26.900Z,29.02
2022-09-05T10:54:24.351Z,28.65
2022-09-05T10:57:07.735Z,28.79
2022-09-05T11:01:49.926Z,28.21
2022-09-05T11:03:00.696Z,28.39
2022-09-05T11:05:29.310Z,26.82
2022-09-05T11:08:03.207Z,26.24
2022-09-05T11:11:08.671Z,25.35
2022-09-05T11:13:46.123Z,25.97
2022-09-05T11:16:20.892Z,26.06
2022-09-05T11:19:04.181Z,25.86
2022-09-05T11:21:39.357Z,25.31
2022-09-05T11:24:27.130Z,27.17
2022-09-05T11:27:25.121Z,25.19
2022-09-05T11:30:28.404Z,25.14
2022-09-05T11:39:46.768Z,25.18
2022-09-05T11:39:53.604Z,26.39
2022-09-05T11:40:02.338Z,26.60
2022-09-05T11:42:16.878Z,27.53
2022-09-05T11:44:53.945Z,28.75
2022-09-05T11:47:43.641Z,28.96
2022-09-05T11:50:31.664Z,29.57
2022-09-05T11:53:20.118Z,30.19
2022-09-05T11:56:17.754Z,29.66
2022-09-05T11:59:06.321Z,30.00
2022-09-05T12:02:24.012Z,30.16
2022-09-05T12:05:48.857Z,30.23
2022-09-05T12:08:26.284Z,30.31
2022-09-05T12:11:34.569Z,28.35
2022-09-05T12:14:17.097Z,27.83
2022-09-05T12:16:55.600Z,26.57
2022-09-05T12:19:47.412Z,26.30
2022-09-05T12:22:33.834Z,25.47
2022-09-05T12:26:30.732Z,25.91
2022-09-05T12:28:51.061Z,25.84
2022-09-05T12:32:50.322Z,24.91
2022-09-05T12:36:07.971Z,25.61
2022-09-05T12:40:51.955Z,25.25
2022-09-05T12:41:33.575Z,25.42
2022-09-05T12:44:04.654Z,25.58
2022-09-05T12:45:47.758Z,26.73
2022-09-05T12:48:39.360Z,26.54
2022-09-05T12:51:18.574Z,27.36
2022-09-05T12:54:32.567Z,28.70
2022-09-05T12:57:51.693Z,28.73
2022-09-05T13:03:04.084Z,29.24
2022-09-05T13:03:12.396Z,29.82
2022-09-05T13:06:05.247Z,29.52
2022-09-05T13:08:59.649Z,29.10
2022-09-05T13:14:47.560Z,29.04
2022-09-05T13:15:07.884Z,27.49
2022-09-05T13:17:14.161Z,26.23
2022-09-05T13:19:45.877Z,26.69
2022-09-05T13:22:14.870Z,26.31
2022-09-05T13:24:48.094Z,26.40
2022-09-05T13:27:17.538Z,26.53
2022-09-05T13:33:36.395Z,26.04
2022-09-05T13:37:58.205Z,26.67
2022-09-05T13:38:02.655Z,27.79
2022-09-05T13:39:05.436Z,29.32
2022-09-05T13:41:36.172Z,28.80
2022-09-05T13:44:25.778Z,29.76
2022-09-05T13:46:59.273Z,30.30
2022-09-05T13:49:37.314Z,30.74
2022-09-05T13:52:13.640Z,32.16
2022-09-05T13:54:50.271Z,32.58
2022-09-05T13:57:39.135Z,33.15
2022-09-05T14:00:27.601Z,33.02
2022-09-05T14:03:37.763Z,34.12
2022-09-05T14:06:49.195Z,33.49
2022-09-05T14:09:39.643Z,33.51
2022-09-05T14:12:34.377Z,33.99
2022-09-05T14:15:16.457Z,35.09
2022-09-05T14:17:57.929Z,34.76
2022-09-05T14:20:49.527Z,35.34
2022-09-05T14:23:17.894Z,34.72
2022-09-05T14:25:52.411Z,34.76
2022-09-05T14:28:33.915Z,34.88
2022-09-05T14:37:37.322Z,35.37
2022-09-05T14:38:01.496Z,36.96
2022-09-05T14:38:05.642Z,35.48
2022-09-05T14:41:04.814Z,34.96
2022-09-05T14:43:57.144Z,35.82
2022-09-05T14:46:38.504Z,36.38
2022-09-05T14:49:37.709Z,35.84
2022-09-05T14:52:17.518Z,36.77
2022-09-05T15:02:42.187Z,36.21
2022-09-05T15:02:45.585Z,36.98
2022-09-05T15:03:12.803Z,36.69
2022-09-05T15:05:50.365Z,36.38
2022-09-05T15:11:15.231Z,37.42
2022-09-05T15:12:19.929Z,38.18
2022-09-05T15:14:05.733Z,37.62
2022-09-05T15:16:38.678Z,38.71
2022-09-05T15:19:09.548Z,38.08
2022-09-05T15:21:41.659Z,38.24
2022-09-05T15:24:21.311Z,37.61
2022-09-05T15:26:59.499Z,37.55
2022-09-05T15:29:34.506Z,38.15
2022-09-05T15:32:21.862Z,37.89
2022-09-05T15:34:52.974Z,37.98
2022-09-05T15:37:28.821Z,37.54
2022-09-05T15:40:23.694Z,37.66
2022-09-05T15:42:57.238Z,37.97
2022-09-05T15:45:35.565Z,38.57
2022-09-05T15:48:06.660Z,38.26
2022-09-05T15:50:46.975Z,38.37
2022-09-05T15:53:25.284Z,38.99
2022-09-05T15:55:56.403Z,38.99
2022-09-05T15:58:27.455Z,39.06
2022-09-05T16:01:12.907Z,39.05
2022-09-05T16:06:53.834Z,39.14
2022-09-05T16:10:38.655Z,39.01
2022-09-05T16:10:45.940Z,38.86
2022-09-05T16:12:36.028Z,39.02
2022-09-05T16:16:51.400Z,39.40
2022-09-05T16:23:13.779Z,39.13
2022-09-05T16:23:29.885Z,39.28
2022-09-05T16:23:49.280Z,39.02
2022-09-05T16:26:26.187Z,39.22
2022-09-05T16:29:05.561Z,38.86
2022-09-05T16:31:42.170Z,39.03
2022-09-05T16:34:32.099Z,39.41
2022-09-05T16:37:08.167Z,39.05
2022-09-05T16:39:38.172Z,39.03
2022-09-05T16:42:16.205Z,38.64
2022-09-05T16:44:46.034Z,38.97
2022-09-05T16:47:22.151Z,38.81
2022-09-05T16:49:58.794Z,39.01
2022-09-05T16:52:53.526Z,39.74
2022-09-05T16:55:55.327Z,39.46
2022-09-05T16:58:31.701Z,39.82
2022-09-05T17:01:09.636Z,39.83
2022-09-05T17:03:36.417Z,40.36
2022-09-05T17:06:26.194Z,40.30
2022-09-05T17:09:12.406Z,40.38
2022-09-05T17:12:00.097Z,39.85
2022-09-05T17:14:34.485Z,40.14
2022-09-05T17:17:36.502Z,40.35
2022-09-05T17:20:09.806Z,40.67
2022-09-05T17:27:09.129Z,40.57
2022-09-05T17:29:24.243Z,40.74
2022-09-05T17:29:32.174Z,41.37
2022-09-05T17:31:54.866Z,41.08
2022-09-05T17:34:49.741Z,40.77
2022-09-05T17:37:25.482Z,41.07
2022-09-05T17:40:27.080Z,41.24
2022-09-05T17:43:18.658Z,40.94
2022-09-05T17:46:12.934Z,41.63
2022-09-05T17:49:10.171Z,40.87
2022-09-05T17:51:35.829Z,41.42
2022-09-05T17:54:08.192Z,41.88
2022-09-05T17:56:39.729Z,41.88
2022-09-05T17:59:13.435Z,42.24
2022-09-05T18:01:44.283Z,42.41
2022-09-05T18:04:16.419Z,42.21
2022-09-05T18:06:58.866Z,43.10
2022-09-05T18:09:36.857Z,42.85
2022-09-05T18:13:11.963Z,43.02
2022-09-05T18:15:38.803Z,43.54
2022-09-05T18:18:10.799Z,43.59
2022-09-05T18:21:14.626Z,43.83
2022-09-05T18:23:54.320Z,43.88
2022-09-05T18:26:26.371Z,43.70
2022-09-05T18:29:05.915Z,44.34
2022-09-05T18:31:41.631Z,44.33
2022-09-05T18:34:24.433Z,44.74
2022-09-05T18:36:58.575Z,44.62
2022-09-05T18:39:29.361Z,43.77
2022-09-05T18:42:26.497Z,43.91
2022-09-05T18:44:54.476Z,44.73
2022-09-05T18:47:52.821Z,44.72
2022-09-05T18:50:28.766Z,45.21
2022-09-05T18:53:08.836Z,45.08
2022-09-05T18:56:12.705Z,45.11
2022-09-05T18:58:34.145Z,45.42
2022-09-05T19:01:35.999Z,45.32
2022-09-05T19:04:07.840Z,45.39
2022-09-05T19:06:45.321Z,45.88
2022-09-05T19:09:20.389Z,46.04
2022-09-05T19:11:57.029Z,46.02
2022-09-05T19:14:41.961Z,45.87
2022-09-05T19:17:18.333Z,46.21
2022-09-05T19:20:05.113Z,46.40
2022-09-05T19:23:11.300Z,46.72
2022-09-05T19:25:44.391Z,46.48
2022-09-05T19:36:48.593Z,45.95
2022-09-05T19:37:12.703Z,45.99
2022-09-05T19:37:12.859Z,45.07
2022-09-05T19:47:26.850Z,45.50
2022-09-05T19:47:35.380Z,45.81
2022-09-05T19:47:41.359Z,45.68
2022-09-05T19:48:34.635Z,45.60
2022-09-05T19:51:17.879Z,45.12
2022-09-05T19:54:05.008Z,45.39
2022-09-05T19:56:42.689Z,45.00
2022-09-05T19:59:39.716Z,44.53
2022-09-05T20:02:11.944Z,44.91
2022-09-05T20:04:50.781Z,45.22
2022-09-05T20:07:28.840Z,45.49
2022-09-05T20:09:57.168Z,45.01
2022-09-05T20:12:30.501Z,45.26
2022-09-05T20:14:58.680Z,45.05
2022-09-05T20:17:31.565Z,44.82
2022-09-05T20:20:28.737Z,45.02
2022-09-05T20:23:02.522Z,44.99
2022-09-05T20:25:43.574Z,44.31
2022-09-05T20:28:13.993Z,44.57
2022-09-05T20:30:44.050Z,44.68
2022-09-05T20:33:19.421Z,44.84
2022-09-05T20:39:39.596Z,44.85
2022-09-05T20:43:19.941Z,45.03
2022-09-05T20:43:24.586Z,45.08
2022-09-05T20:44:22.718Z,45.27
2022-09-05T20:51:41.054Z,45.22
2022-09-05T20:54:18.230Z,44.60
2022-09-05T20:54:28.529Z,44.21
2022-09-05T20:55:41.215Z,44.06
2022-09-05T20:58:31.174Z,44.25
2022-09-05T21:01:22.792Z,43.55
2022-09-05T21:03:56.557Z,44.17
2022-09-05T21:06:33.931Z,43.87
2022-09-05T21:09:25.222Z,43.64
2022-09-05T21:11:54.964Z,43.93
2022-09-05T21:14:23.681Z,43.62
2022-09-05T21:16:59.908Z,43.81
2022-09-05T21:19:35.044Z,44.03
2022-09-05T21:22:03.591Z,44.32
2022-09-05T21:24:30.804Z,44.16
2022-09-05T21:27:23.121Z,43.39
2022-09-05T21:29:53.001Z,43.83
2022-09-05T21:32:26.098Z,43.62
2022-09-05T21:35:34.827Z,43.56
2022-09-05T21:37:53.231Z,43.85
2022-09-05T21:40:21.335Z,42.97
2022-09-05T21:47:37.783Z,42.83
2022-09-05T21:47:47.848Z,42.63
2022-09-05T21:48:24.493Z,43.14
2022-09-05T21:50:52.057Z,42.75
2022-09-05T21:55:07.986Z,41.86
2022-09-05T21:59:16.681Z,42.35
2022-09-05T21:59:33.208Z,42.40
2022-09-05T22:01:55.773Z,42.15
2022-09-05T22:04:22.558Z,42.28
2022-09-05T22:06:50.124Z,42.16
2022-09-05T22:09:18.334Z,42.40
2022-09-05T22:11:51.415Z,42.99
2022-09-05T22:14:23.723Z,42.48
2022-09-05T22:16:53.610Z,42.20
2022-09-05T22:19:37.200Z,41.65
2022-09-05T22:22:16.270Z,42.31
2022-09-05T22:24:53.495Z,43.07
2022-09-05T22:27:21.586Z,42.86
2022-09-05T22:29:50.771Z,43.40
2022-09-05T22:32:28.569Z,43.16
2022-09-05T22:35:16.000Z,43.15
2022-09-05T22:37:55.356Z,43.21
2022-09-05T22:40:27.393Z,42.11
2022-09-05T22:42:59.340Z,42.32
2022-09-05T22:45:26.784Z,42.33
2022-09-05T22:47:53.691Z,42.45
2022-09-05T22:50:20.921Z,42.10
2022-09-05T22:52:47.738Z,42.44
2022-09-05T22:55:14.470Z,42.15
2022-09-05T22:57:41.909Z,42.36
2022-09-05T23:00:09.683Z,41.43
2022-09-05T23:02:36.708Z,42.01
2022-09-05T23:05:05.265Z,42.57
2022-09-05T23:07:32.645Z,41.26
2022-09-05T23:09:59.415Z,41.73
2022-09-05T23:12:26.172Z,41.73
2022-09-05T23:14:52.932Z,41.42
2022-09-05T23:17:19.781Z,42.21
2022-09-05T23:19:46.480Z,41.58
2022-09-05T23:22:13.458Z,40.91
2022-09-05T23:24:40.139Z,40.77
2022-09-05T23:27:06.829Z,40.27
2022-09-05T23:29:33.646Z,40.96
2022-09-05T23:32:00.345Z,40.58
2022-09-05T23:34:27.034Z,40.83
2022-09-05T23:36:53.757Z,40.57
2022-09-05T23:39:20.466Z,41.16
2022-09-05T23:41:47.221Z,41.64
2022-09-05T23:44:13.987Z,40.99
2022-09-05T23:46:40.696Z,40.07
2022-09-05T23:49:07.533Z,39.78
2022-09-05T23:51:34.420Z,40.72
2022-09-05T23:54:01.095Z,40.86
2022-09-05T23:56:27.842Z,40.79
2022-09-05T23:58:54.770Z,40.47
